sensor_id;sensor_type;location;lat;lon;timestamp;temperature;humidity
48575;DHT22;34352;51.084;3.712;2022-08-01T00:00:30;20.10;44.60
48575;DHT22;34352;51.084;3.712;2022-08-01T00:02:56;20.10;42.60
48575;DHT22;34352;51.084;3.712;2022-08-01T00:05:21;20.10;41.20
48575;DHT22;34352;51.084;3.712;2022-08-01T00:07:47;20.20;41.40
48575;DHT22;34352;51.084;3.712;2022-08-01T00:10:14;20.10;43.30
48575;DHT22;34352;51.084;3.712;2022-08-01T00:12:41;20.10;44.60
48575;DHT22;34352;51.084;3.712;2022-08-01T00:15:11;20.10;45.60
48575;DHT22;34352;51.084;3.712;2022-08-01T00:17:37;20.10;44.80
48575;DHT22;34352;51.084;3.712;2022-08-01T00:20:05;20.10;43.70
48575;DHT22;34352;51.084;3.712;2022-08-01T00:22:32;20.10;45.60
48575;DHT22;34352;51.084;3.712;2022-08-01T00:24:58;20.10;46.10
48575;DHT22;34352;51.084;3.712;2022-08-01T00:27:24;20.00;47.60
48575;DHT22;34352;51.084;3.712;2022-08-01T00:29:49;19.90;50.50
48575;DHT22;34352;51.084;3.712;2022-08-01T00:32:15;19.90;51.20
48575;DHT22;34352;51.084;3.712;2022-08-01T00:34:41;19.90;51.40
48575;DHT22;34352;51.084;3.712;2022-08-01T00:37:06;20.00;50.80
48575;DHT22;34352;51.084;3.712;2022-08-01T00:39:32;20.00;49.50
48575;DHT22;34352;51.084;3.712;2022-08-01T00:41:59;20.00;50.20
48575;DHT22;34352;51.084;3.712;2022-08-01T00:44:25;20.00;51.30
48575;DHT22;34352;51.084;3.712;2022-08-01T00:46:51;20.00;51.70
48575;DHT22;34352;51.084;3.712;2022-08-01T00:49:16;20.00;52.70
48575;DHT22;34352;51.084;3.712;2022-08-01T00:51:42;20.00;52.10
48575;DHT22;34352;51.084;3.712;2022-08-01T00:54:09;20.10;52.20
48575;DHT22;34352;51.084;3.712;2022-08-01T00:56:34;20.10;52.70
48575;DHT22;34352;51.084;3.712;2022-08-01T00:59:00;20.10;53.00
48575;DHT22;34352;51.084;3.712;2022-08-01T01:01:28;20.10;51.80
48575;DHT22;34352;51.084;3.712;2022-08-01T01:03:55;20.20;50.90
48575;DHT22;34352;51.084;3.712;2022-08-01T01:06:44;20.30;50.30
48575;DHT22;34352;51.084;3.712;2022-08-01T01:12:17;20.20;53.30
48575;DHT22;34352;51.084;3.712;2022-08-01T01:15:08;20.20;54.30
48575;DHT22;34352;51.084;3.712;2022-08-01T01:17:44;20.20;55.10
48575;DHT22;34352;51.084;3.712;2022-08-01T01:20:13;20.20;56.40
48575;DHT22;34352;51.084;3.712;2022-08-01T01:25:34;20.10;56.90
48575;DHT22;34352;51.084;3.712;2022-08-01T01:28:20;20.20;58.00
48575;DHT22;34352;51.084;3.712;2022-08-01T01:30:53;20.20;58.20
48575;DHT22;34352;51.084;3.712;2022-08-01T01:33:21;20.20;59.40
48575;DHT22;34352;51.084;3.712;2022-08-01T01:35:52;20.20;59.00
48575;DHT22;34352;51.084;3.712;2022-08-01T01:38:24;20.30;58.70
48575;DHT22;34352;51.084;3.712;2022-08-01T01:40:52;20.30;58.10
48575;DHT22;34352;51.084;3.712;2022-08-01T01:43:21;20.20;56.60
48575;DHT22;34352;51.084;3.712;2022-08-01T01:45:49;20.20;55.30
48575;DHT22;34352;51.084;3.712;2022-08-01T01:48:20;20.10;54.70
48575;DHT22;34352;51.084;3.712;2022-08-01T01:50:47;20.00;53.60
48575;DHT22;34352;51.084;3.712;2022-08-01T01:53:18;20.00;53.20
48575;DHT22;34352;51.084;3.712;2022-08-01T01:55:49;20.10;53.60
48575;DHT22;34352;51.084;3.712;2022-08-01T01:58:17;20.00;54.20
48575;DHT22;34352;51.084;3.712;2022-08-01T02:00:45;20.00;54.60
48575;DHT22;34352;51.084;3.712;2022-08-01T02:03:12;20.10;53.60
48575;DHT22;34352;51.084;3.712;2022-08-01T02:05:41;20.10;52.80
48575;DHT22;34352;51.084;3.712;2022-08-01T02:08:10;20.10;52.40
48575;DHT22;34352;51.084;3.712;2022-08-01T02:10:37;20.20;50.80
48575;DHT22;34352;51.084;3.712;2022-08-01T02:13:05;20.20;50.90
48575;DHT22;34352;51.084;3.712;2022-08-01T02:15:33;20.30;50.00
48575;DHT22;34352;51.084;3.712;2022-08-01T02:18:01;20.20;46.00
48575;DHT22;34352;51.084;3.712;2022-08-01T02:20:29;20.20;46.10
48575;DHT22;34352;51.084;3.712;2022-08-01T02:23:01;20.20;46.20
48575;DHT22;34352;51.084;3.712;2022-08-01T02:25:38;20.20;45.20
48575;DHT22;34352;51.084;3.712;2022-08-01T02:28:10;20.30;45.60
48575;DHT22;34352;51.084;3.712;2022-08-01T02:30:40;20.30;44.90
48575;DHT22;34352;51.084;3.712;2022-08-01T02:33:19;20.30;44.20
48575;DHT22;34352;51.084;3.712;2022-08-01T02:35:50;20.30;42.10
48575;DHT22;34352;51.084;3.712;2022-08-01T02:38:18;20.30;42.30
48575;DHT22;34352;51.084;3.712;2022-08-01T02:40:47;20.30;42.60
48575;DHT22;34352;51.084;3.712;2022-08-01T02:43:17;20.30;41.90
48575;DHT22;34352;51.084;3.712;2022-08-01T02:45:47;20.30;40.80
48575;DHT22;34352;51.084;3.712;2022-08-01T02:48:15;20.40;38.80
48575;DHT22;34352;51.084;3.712;2022-08-01T02:50:45;20.30;39.50
48575;DHT22;34352;51.084;3.712;2022-08-01T02:53:16;20.30;37.80
48575;DHT22;34352;51.084;3.712;2022-08-01T02:55:44;20.30;37.10
48575;DHT22;34352;51.084;3.712;2022-08-01T02:58:15;20.30;36.50
48575;DHT22;34352;51.084;3.712;2022-08-01T03:00:43;20.30;34.70
48575;DHT22;34352;51.084;3.712;2022-08-01T03:03:11;20.30;35.50
48575;DHT22;34352;51.084;3.712;2022-08-01T03:05:38;20.30;35.30
48575;DHT22;34352;51.084;3.712;2022-08-01T03:08:08;20.20;35.80
48575;DHT22;34352;51.084;3.712;2022-08-01T03:10:38;20.20;36.40
48575;DHT22;34352;51.084;3.712;2022-08-01T03:13:06;20.20;35.20
48575;DHT22;34352;51.084;3.712;2022-08-01T03:15:35;20.20;34.50
48575;DHT22;34352;51.084;3.712;2022-08-01T03:18:02;20.20;34.70
48575;DHT22;34352;51.084;3.712;2022-08-01T03:20:30;20.20;34.60
48575;DHT22;34352;51.084;3.712;2022-08-01T03:23:00;20.20;34.60
48575;DHT22;34352;51.084;3.712;2022-08-01T03:25:27;20.20;34.30
48575;DHT22;34352;51.084;3.712;2022-08-01T03:27:57;20.10;34.20
48575;DHT22;34352;51.084;3.712;2022-08-01T03:30:25;20.10;34.90
48575;DHT22;34352;51.084;3.712;2022-08-01T03:32:51;20.10;34.40
48575;DHT22;34352;51.084;3.712;2022-08-01T03:35:17;20.20;34.50
48575;DHT22;34352;51.084;3.712;2022-08-01T03:37:46;20.10;36.00
48575;DHT22;34352;51.084;3.712;2022-08-01T03:40:35;20.10;37.40
48575;DHT22;34352;51.084;3.712;2022-08-01T03:43:05;20.20;35.40
48575;DHT22;34352;51.084;3.712;2022-08-01T03:45:37;20.20;34.80
48575;DHT22;34352;51.084;3.712;2022-08-01T03:48:15;20.20;33.70
48575;DHT22;34352;51.084;3.712;2022-08-01T03:50:44;20.20;32.80
48575;DHT22;34352;51.084;3.712;2022-08-01T03:53:11;20.20;32.90
48575;DHT22;34352;51.084;3.712;2022-08-01T03:55:39;20.20;32.40
48575;DHT22;34352;51.084;3.712;2022-08-01T03:58:08;20.20;32.30
48575;DHT22;34352;51.084;3.712;2022-08-01T04:00:38;20.10;33.50
48575;DHT22;34352;51.084;3.712;2022-08-01T04:03:06;20.10;35.60
48575;DHT22;34352;51.084;3.712;2022-08-01T04:05:32;20.10;33.90
48575;DHT22;34352;51.084;3.712;2022-08-01T04:07:58;20.10;31.40
48575;DHT22;34352;51.084;3.712;2022-08-01T04:10:25;20.20;32.10
48575;DHT22;34352;51.084;3.712;2022-08-01T04:12:52;20.00;34.90
48575;DHT22;34352;51.084;3.712;2022-08-01T04:15:17;20.00;35.40
48575;DHT22;34352;51.084;3.712;2022-08-01T04:17:43;20.00;35.10
48575;DHT22;34352;51.084;3.712;2022-08-01T04:20:09;20.00;35.10
48575;DHT22;34352;51.084;3.712;2022-08-01T04:22:36;19.90;35.80
48575;DHT22;34352;51.084;3.712;2022-08-01T04:25:15;19.90;36.70
48575;DHT22;34352;51.084;3.712;2022-08-01T04:27:46;19.90;38.00
48575;DHT22;34352;51.084;3.712;2022-08-01T04:30:13;19.90;37.40
48575;DHT22;34352;51.084;3.712;2022-08-01T04:32:42;19.80;38.00
48575;DHT22;34352;51.084;3.712;2022-08-01T04:35:12;19.80;39.80
48575;DHT22;34352;51.084;3.712;2022-08-01T04:37:42;19.80;39.00
48575;DHT22;34352;51.084;3.712;2022-08-01T04:40:08;19.80;36.50
48575;DHT22;34352;51.084;3.712;2022-08-01T04:42:35;19.80;37.30
48575;DHT22;34352;51.084;3.712;2022-08-01T04:45:00;19.80;36.10
48575;DHT22;34352;51.084;3.712;2022-08-01T04:47:27;19.90;38.00
48575;DHT22;34352;51.084;3.712;2022-08-01T04:49:54;19.90;39.00
48575;DHT22;34352;51.084;3.712;2022-08-01T04:52:22;20.00;38.90
48575;DHT22;34352;51.084;3.712;2022-08-01T04:54:48;20.00;38.80
48575;DHT22;34352;51.084;3.712;2022-08-01T04:57:14;20.00;37.60
48575;DHT22;34352;51.084;3.712;2022-08-01T04:59:42;20.00;36.10
48575;DHT22;34352;51.084;3.712;2022-08-01T05:02:17;20.10;34.90
48575;DHT22;34352;51.084;3.712;2022-08-01T05:04:44;20.10;34.30
48575;DHT22;34352;51.084;3.712;2022-08-01T05:07:11;20.10;31.40
48575;DHT22;34352;51.084;3.712;2022-08-01T05:09:37;20.20;32.80
48575;DHT22;34352;51.084;3.712;2022-08-01T05:12:04;20.30;29.80
48575;DHT22;34352;51.084;3.712;2022-08-01T05:14:31;20.20;29.60
48575;DHT22;34352;51.084;3.712;2022-08-01T05:17:02;20.30;28.90
48575;DHT22;34352;51.084;3.712;2022-08-01T05:19:32;20.40;28.00
48575;DHT22;34352;51.084;3.712;2022-08-01T05:22:02;20.50;28.60
48575;DHT22;34352;51.084;3.712;2022-08-01T05:24:30;20.40;27.80
48575;DHT22;34352;51.084;3.712;2022-08-01T05:26:57;20.50;26.50
48575;DHT22;34352;51.084;3.712;2022-08-01T05:29:23;20.60;25.10
48575;DHT22;34352;51.084;3.712;2022-08-01T05:31:48;20.70;22.50
48575;DHT22;34352;51.084;3.712;2022-08-01T05:34:14;20.80;19.00
48575;DHT22;34352;51.084;3.712;2022-08-01T05:36:40;20.80;16.50
48575;DHT22;34352;51.084;3.712;2022-08-01T05:39:06;20.90;14.90
48575;DHT22;34352;51.084;3.712;2022-08-01T05:41:32;21.00;11.20
48575;DHT22;34352;51.084;3.712;2022-08-01T05:43:58;21.10;6.40
48575;DHT22;34352;51.084;3.712;2022-08-01T05:46:23;21.10;2.70
48575;DHT22;34352;51.084;3.712;2022-08-01T05:48:49;21.10;1.00
48575;DHT22;34352;51.084;3.712;2022-08-01T05:51:15;21.10;1.00
48575;DHT22;34352;51.084;3.712;2022-08-01T05:53:40;21.10;1.00
48575;DHT22;34352;51.084;3.712;2022-08-01T05:56:06;21.10;1.00
48575;DHT22;34352;51.084;3.712;2022-08-01T05:58:32;21.20;1.00
48575;DHT22;34352;51.084;3.712;2022-08-01T06:00:58;21.70;1.00
48575;DHT22;34352;51.084;3.712;2022-08-01T06:03:24;22.30;1.00
48575;DHT22;34352;51.084;3.712;2022-08-01T06:05:52;23.60;1.00
48575;DHT22;34352;51.084;3.712;2022-08-01T06:08:18;24.90;1.00
48575;DHT22;34352;51.084;3.712;2022-08-01T06:10:44;26.00;1.00
48575;DHT22;34352;51.084;3.712;2022-08-01T06:13:09;26.70;1.00
48575;DHT22;34352;51.084;3.712;2022-08-01T06:15:35;26.80;1.00
48575;DHT22;34352;51.084;3.712;2022-08-01T06:18:00;26.80;1.00
48575;DHT22;34352;51.084;3.712;2022-08-01T06:20:26;26.80;1.00
48575;DHT22;34352;51.084;3.712;2022-08-01T06:22:52;27.00;1.00
48575;DHT22;34352;51.084;3.712;2022-08-01T06:25:18;26.80;1.00
48575;DHT22;34352;51.084;3.712;2022-08-01T06:27:44;26.70;1.00
48575;DHT22;34352;51.084;3.712;2022-08-01T06:30:10;26.70;1.00
48575;DHT22;34352;51.084;3.712;2022-08-01T06:32:36;26.10;1.00
48575;DHT22;34352;51.084;3.712;2022-08-01T06:35:02;25.80;1.00
48575;DHT22;34352;51.084;3.712;2022-08-01T06:37:32;25.50;1.00
48575;DHT22;34352;51.084;3.712;2022-08-01T06:40:05;25.10;1.00
48575;DHT22;34352;51.084;3.712;2022-08-01T06:42:32;24.90;1.00
48575;DHT22;34352;51.084;3.712;2022-08-01T06:45:05;24.70;1.00
48575;DHT22;34352;51.084;3.712;2022-08-01T06:47:31;24.50;1.00
48575;DHT22;34352;51.084;3.712;2022-08-01T06:49:57;24.30;1.00
48575;DHT22;34352;51.084;3.712;2022-08-01T06:52:23;24.40;1.00
48575;DHT22;34352;51.084;3.712;2022-08-01T06:54:49;24.50;1.00
48575;DHT22;34352;51.084;3.712;2022-08-01T06:57:14;24.50;1.00
48575;DHT22;34352;51.084;3.712;2022-08-01T06:59:40;24.40;1.00
48575;DHT22;34352;51.084;3.712;2022-08-01T07:02:06;24.50;1.00
48575;DHT22;34352;51.084;3.712;2022-08-01T07:04:33;24.60;1.00
48575;DHT22;34352;51.084;3.712;2022-08-01T07:06:59;24.80;1.00
48575;DHT22;34352;51.084;3.712;2022-08-01T07:09:25;24.90;1.00
48575;DHT22;34352;51.084;3.712;2022-08-01T07:11:51;24.80;1.00
48575;DHT22;34352;51.084;3.712;2022-08-01T07:14:18;24.90;1.00
48575;DHT22;34352;51.084;3.712;2022-08-01T07:16:44;25.10;1.00
48575;DHT22;34352;51.084;3.712;2022-08-01T07:19:10;25.10;1.00
48575;DHT22;34352;51.084;3.712;2022-08-01T07:21:35;25.50;1.00
48575;DHT22;34352;51.084;3.712;2022-08-01T07:24:01;25.90;1.00
48575;DHT22;34352;51.084;3.712;2022-08-01T07:26:28;26.00;1.00
48575;DHT22;34352;51.084;3.712;2022-08-01T07:28:53;26.30;1.00
48575;DHT22;34352;51.084;3.712;2022-08-01T07:31:19;26.60;1.00
48575;DHT22;34352;51.084;3.712;2022-08-01T07:33:45;27.40;1.00
48575;DHT22;34352;51.084;3.712;2022-08-01T07:36:11;28.10;1.00
48575;DHT22;34352;51.084;3.712;2022-08-01T07:38:37;28.10;1.00
48575;DHT22;34352;51.084;3.712;2022-08-01T07:41:02;27.70;1.00
48575;DHT22;34352;51.084;3.712;2022-08-01T07:43:28;27.20;1.00
48575;DHT22;34352;51.084;3.712;2022-08-01T07:45:54;27.00;1.00
48575;DHT22;34352;51.084;3.712;2022-08-01T07:48:20;26.90;1.00
48575;DHT22;34352;51.084;3.712;2022-08-01T07:50:50;26.70;1.00
48575;DHT22;34352;51.084;3.712;2022-08-01T07:53:16;26.50;1.00
48575;DHT22;34352;51.084;3.712;2022-08-01T07:55:42;26.30;1.00
48575;DHT22;34352;51.084;3.712;2022-08-01T07:58:08;26.20;1.00
48575;DHT22;34352;51.084;3.712;2022-08-01T08:00:33;26.00;1.00
48575;DHT22;34352;51.084;3.712;2022-08-01T08:02:59;25.80;1.00
48575;DHT22;34352;51.084;3.712;2022-08-01T08:05:28;25.90;1.00
48575;DHT22;34352;51.084;3.712;2022-08-01T08:07:53;26.10;1.00
48575;DHT22;34352;51.084;3.712;2022-08-01T08:10:19;26.20;1.00
48575;DHT22;34352;51.084;3.712;2022-08-01T08:12:45;26.30;1.00
48575;DHT22;34352;51.084;3.712;2022-08-01T08:15:12;26.30;1.00
48575;DHT22;34352;51.084;3.712;2022-08-01T08:17:38;26.60;1.00
48575;DHT22;34352;51.084;3.712;2022-08-01T08:20:07;27.30;1.00
48575;DHT22;34352;51.084;3.712;2022-08-01T08:22:34;28.10;1.00
48575;DHT22;34352;51.084;3.712;2022-08-01T08:25:00;28.60;1.00
48575;DHT22;34352;51.084;3.712;2022-08-01T08:27:26;28.60;1.00
48575;DHT22;34352;51.084;3.712;2022-08-01T08:29:51;28.60;1.00
48575;DHT22;34352;51.084;3.712;2022-08-01T08:32:17;28.10;1.00
48575;DHT22;34352;51.084;3.712;2022-08-01T08:34:43;28.50;1.00
48575;DHT22;34352;51.084;3.712;2022-08-01T08:37:10;28.20;1.00
48575;DHT22;34352;51.084;3.712;2022-08-01T08:39:36;28.00;1.00
48575;DHT22;34352;51.084;3.712;2022-08-01T08:42:06;28.10;1.00
48575;DHT22;34352;51.084;3.712;2022-08-01T08:44:32;27.20;1.00
48575;DHT22;34352;51.084;3.712;2022-08-01T08:46:58;27.20;1.00
48575;DHT22;34352;51.084;3.712;2022-08-01T08:49:28;27.40;1.00
48575;DHT22;34352;51.084;3.712;2022-08-01T08:51:58;27.70;1.00
48575;DHT22;34352;51.084;3.712;2022-08-01T08:54:24;29.30;1.00
48575;DHT22;34352;51.084;3.712;2022-08-01T08:56:52;30.70;1.00
48575;DHT22;34352;51.084;3.712;2022-08-01T08:59:18;31.30;1.00
48575;DHT22;34352;51.084;3.712;2022-08-01T09:01:46;31.20;1.00
48575;DHT22;34352;51.084;3.712;2022-08-01T09:04:12;32.80;1.00
48575;DHT22;34352;51.084;3.712;2022-08-01T09:06:38;34.30;1.00
48575;DHT22;34352;51.084;3.712;2022-08-01T09:09:05;34.60;1.00
48575;DHT22;34352;51.084;3.712;2022-08-01T09:11:31;34.20;1.00
48575;DHT22;34352;51.084;3.712;2022-08-01T09:16:32;33.80;1.00
48575;DHT22;34352;51.084;3.712;2022-08-01T09:19:16;33.70;1.00
48575;DHT22;34352;51.084;3.712;2022-08-01T09:21:59;33.00;1.00
48575;DHT22;34352;51.084;3.712;2022-08-01T09:24:27;32.20;1.00
48575;DHT22;34352;51.084;3.712;2022-08-01T09:26:53;31.70;1.00
48575;DHT22;34352;51.084;3.712;2022-08-01T09:29:30;32.20;1.00
48575;DHT22;34352;51.084;3.712;2022-08-01T09:31:57;33.20;1.00
48575;DHT22;34352;51.084;3.712;2022-08-01T09:34:29;33.50;1.00
48575;DHT22;34352;51.084;3.712;2022-08-01T09:36:59;34.10;1.00
48575;DHT22;34352;51.084;3.712;2022-08-01T09:41:56;35.20;1.00
48575;DHT22;34352;51.084;3.712;2022-08-01T09:44:42;36.30;1.00
48575;DHT22;34352;51.084;3.712;2022-08-01T09:47:09;35.50;1.00
48575;DHT22;34352;51.084;3.712;2022-08-01T09:49:37;34.80;1.00
48575;DHT22;34352;51.084;3.712;2022-08-01T09:52:13;33.90;1.00
48575;DHT22;34352;51.084;3.712;2022-08-01T09:54:40;33.00;1.00
48575;DHT22;34352;51.084;3.712;2022-08-01T09:57:17;32.50;1.00
48575;DHT22;34352;51.084;3.712;2022-08-01T09:59:45;32.00;1.00
48575;DHT22;34352;51.084;3.712;2022-08-01T10:02:14;31.00;1.00
48575;DHT22;34352;51.084;3.712;2022-08-01T10:04:59;30.40;1.00
48575;DHT22;34352;51.084;3.712;2022-08-01T10:07:26;30.80;1.00
48575;DHT22;34352;51.084;3.712;2022-08-01T10:09:52;31.30;1.00
48575;DHT22;34352;51.084;3.712;2022-08-01T10:12:19;31.50;1.00
48575;DHT22;34352;51.084;3.712;2022-08-01T10:14:47;31.70;1.00
48575;DHT22;34352;51.084;3.712;2022-08-01T10:17:15;32.30;1.00
48575;DHT22;34352;51.084;3.712;2022-08-01T10:19:42;32.10;1.00
48575;DHT22;34352;51.084;3.712;2022-08-01T10:22:10;32.30;1.00
48575;DHT22;34352;51.084;3.712;2022-08-01T10:24:38;32.80;1.00
48575;DHT22;34352;51.084;3.712;2022-08-01T10:27:07;32.60;1.00
48575;DHT22;34352;51.084;3.712;2022-08-01T10:29:41;32.40;1.00
48575;DHT22;34352;51.084;3.712;2022-08-01T10:32:07;32.50;1.00
48575;DHT22;34352;51.084;3.712;2022-08-01T10:34:36;32.90;1.00
48575;DHT22;34352;51.084;3.712;2022-08-01T10:37:05;33.50;1.00
48575;DHT22;34352;51.084;3.712;2022-08-01T10:39:35;33.40;1.00
48575;DHT22;34352;51.084;3.712;2022-08-01T10:42:02;33.60;1.00
48575;DHT22;34352;51.084;3.712;2022-08-01T10:44:30;34.10;1.00
48575;DHT22;34352;51.084;3.712;2022-08-01T10:47:23;34.90;1.00
48575;DHT22;34352;51.084;3.712;2022-08-01T10:49:51;35.40;1.00
48575;DHT22;34352;51.084;3.712;2022-08-01T10:52:19;35.20;1.00
48575;DHT22;34352;51.084;3.712;2022-08-01T10:54:46;34.80;1.00
48575;DHT22;34352;51.084;3.712;2022-08-01T10:57:13;35.00;1.00
48575;DHT22;34352;51.084;3.712;2022-08-01T10:59:51;35.80;1.00
48575;DHT22;34352;51.084;3.712;2022-08-01T11:02:27;35.90;1.00
48575;DHT22;34352;51.084;3.712;2022-08-01T11:05:09;36.90;1.00
48575;DHT22;34352;51.084;3.712;2022-08-01T11:07:46;37.20;1.00
48575;DHT22;34352;51.084;3.712;2022-08-01T11:12:56;36.90;1.00
48575;DHT22;34352;51.084;3.712;2022-08-01T11:15:23;36.10;1.00
48575;DHT22;34352;51.084;3.712;2022-08-01T11:17:56;36.30;1.00
48575;DHT22;34352;51.084;3.712;2022-08-01T11:20:31;36.30;1.00
48575;DHT22;34352;51.084;3.712;2022-08-01T11:30:45;35.10;1.00
48575;DHT22;34352;51.084;3.712;2022-08-01T11:33:13;35.90;1.00
48575;DHT22;34352;51.084;3.712;2022-08-01T11:38:37;35.50;1.00
48575;DHT22;34352;51.084;3.712;2022-08-01T11:41:17;35.40;1.00
48575;DHT22;34352;51.084;3.712;2022-08-01T11:44:01;35.80;1.00
48575;DHT22;34352;51.084;3.712;2022-08-01T11:46:56;35.60;1.00
48575;DHT22;34352;51.084;3.712;2022-08-01T11:52:13;34.90;1.00
48575;DHT22;34352;51.084;3.712;2022-08-01T11:57:28;34.60;1.00
48575;DHT22;34352;51.084;3.712;2022-08-01T11:59:59;33.80;1.00
48575;DHT22;34352;51.084;3.712;2022-08-01T12:02:31;34.10;1.00
48575;DHT22;34352;51.084;3.712;2022-08-01T12:05:07;34.70;1.00
48575;DHT22;34352;51.084;3.712;2022-08-01T12:07:35;34.90;1.00
48575;DHT22;34352;51.084;3.712;2022-08-01T12:10:10;35.30;1.00
48575;DHT22;34352;51.084;3.712;2022-08-01T12:12:40;35.90;1.00
48575;DHT22;34352;51.084;3.712;2022-08-01T12:15:08;35.50;1.00
48575;DHT22;34352;51.084;3.712;2022-08-01T12:17:38;36.00;1.00
48575;DHT22;34352;51.084;3.712;2022-08-01T12:20:07;36.50;1.00
48575;DHT22;34352;51.084;3.712;2022-08-01T12:22:34;37.00;1.00
48575;DHT22;34352;51.084;3.712;2022-08-01T12:25:11;37.10;1.00
48575;DHT22;34352;51.084;3.712;2022-08-01T12:27:39;37.50;1.00
48575;DHT22;34352;51.084;3.712;2022-08-01T12:30:13;37.50;1.00
48575;DHT22;34352;51.084;3.712;2022-08-01T12:32:41;37.70;1.00
48575;DHT22;34352;51.084;3.712;2022-08-01T12:35:13;38.20;1.00
48575;DHT22;34352;51.084;3.712;2022-08-01T12:38:21;36.80;1.00
48575;DHT22;34352;51.084;3.712;2022-08-01T12:40:48;37.10;1.00
48575;DHT22;34352;51.084;3.712;2022-08-01T12:43:23;38.00;1.00
48575;DHT22;34352;51.084;3.712;2022-08-01T12:45:52;38.10;1.00
48575;DHT22;34352;51.084;3.712;2022-08-01T12:48:19;38.10;1.00
48575;DHT22;34352;51.084;3.712;2022-08-01T12:50:47;38.10;1.00
48575;DHT22;34352;51.084;3.712;2022-08-01T12:53:15;37.60;1.00
48575;DHT22;34352;51.084;3.712;2022-08-01T12:55:46;37.30;1.00
48575;DHT22;34352;51.084;3.712;2022-08-01T12:58:13;36.00;1.00
48575;DHT22;34352;51.084;3.712;2022-08-01T13:00:41;36.00;1.00
48575;DHT22;34352;51.084;3.712;2022-08-01T13:03:14;36.80;1.00
48575;DHT22;34352;51.084;3.712;2022-08-01T13:05:55;37.10;1.00
48575;DHT22;34352;51.084;3.712;2022-08-01T13:08:32;37.00;1.00
48575;DHT22;34352;51.084;3.712;2022-08-01T13:11:12;37.40;1.00
48575;DHT22;34352;51.084;3.712;2022-08-01T13:13:44;37.60;1.00
48575;DHT22;34352;51.084;3.712;2022-08-01T13:16:12;38.00;1.00
48575;DHT22;34352;51.084;3.712;2022-08-01T13:18:38;38.40;1.00
48575;DHT22;34352;51.084;3.712;2022-08-01T13:21:18;38.10;1.00
48575;DHT22;34352;51.084;3.712;2022-08-01T13:24:02;38.40;1.00
48575;DHT22;34352;51.084;3.712;2022-08-01T13:27:03;38.10;1.00
48575;DHT22;34352;51.084;3.712;2022-08-01T13:29:33;38.80;1.00
48575;DHT22;34352;51.084;3.712;2022-08-01T13:32:12;38.60;1.00
48575;DHT22;34352;51.084;3.712;2022-08-01T13:34:39;38.20;1.00
48575;DHT22;34352;51.084;3.712;2022-08-01T13:37:04;37.50;1.00
48575;DHT22;34352;51.084;3.712;2022-08-01T13:39:31;35.90;1.00
48575;DHT22;34352;51.084;3.712;2022-08-01T13:42:09;35.10;1.00
48575;DHT22;34352;51.084;3.712;2022-08-01T13:44:36;34.80;1.00
48575;DHT22;34352;51.084;3.712;2022-08-01T13:47:03;34.70;1.00
48575;DHT22;34352;51.084;3.712;2022-08-01T13:49:29;35.10;1.00
48575;DHT22;34352;51.084;3.712;2022-08-01T13:51:55;35.70;1.00
48575;DHT22;34352;51.084;3.712;2022-08-01T13:54:20;35.70;1.00
48575;DHT22;34352;51.084;3.712;2022-08-01T13:56:46;35.20;1.00
48575;DHT22;34352;51.084;3.712;2022-08-01T13:59:12;34.30;1.00
48575;DHT22;34352;51.084;3.712;2022-08-01T14:01:39;34.90;1.00
48575;DHT22;34352;51.084;3.712;2022-08-01T14:04:04;35.20;1.00
48575;DHT22;34352;51.084;3.712;2022-08-01T14:06:31;35.90;1.00
48575;DHT22;34352;51.084;3.712;2022-08-01T14:08:57;36.20;1.00
48575;DHT22;34352;51.084;3.712;2022-08-01T14:11:23;36.00;1.00
48575;DHT22;34352;51.084;3.712;2022-08-01T14:13:48;35.60;1.00
48575;DHT22;34352;51.084;3.712;2022-08-01T14:16:14;35.20;1.00
48575;DHT22;34352;51.084;3.712;2022-08-01T14:18:42;35.20;1.00
48575;DHT22;34352;51.084;3.712;2022-08-01T14:21:07;35.20;1.00
48575;DHT22;34352;51.084;3.712;2022-08-01T14:23:33;35.20;1.00
48575;DHT22;34352;51.084;3.712;2022-08-01T14:25:59;35.20;1.00
48575;DHT22;34352;51.084;3.712;2022-08-01T14:28:25;35.10;1.00
48575;DHT22;34352;51.084;3.712;2022-08-01T14:30:53;34.90;1.00
48575;DHT22;34352;51.084;3.712;2022-08-01T14:33:21;33.80;1.00
48575;DHT22;34352;51.084;3.712;2022-08-01T14:35:46;33.10;1.00
48575;DHT22;34352;51.084;3.712;2022-08-01T14:38:12;32.70;1.00
48575;DHT22;34352;51.084;3.712;2022-08-01T14:40:38;32.50;1.00
48575;DHT22;34352;51.084;3.712;2022-08-01T14:43:04;32.40;1.00
48575;DHT22;34352;51.084;3.712;2022-08-01T14:45:29;32.30;1.00
48575;DHT22;34352;51.084;3.712;2022-08-01T14:47:55;32.10;1.00
48575;DHT22;34352;51.084;3.712;2022-08-01T14:50:21;32.30;1.00
48575;DHT22;34352;51.084;3.712;2022-08-01T14:52:47;32.50;1.00
48575;DHT22;34352;51.084;3.712;2022-08-01T14:55:13;32.50;1.00
48575;DHT22;34352;51.084;3.712;2022-08-01T14:57:40;32.60;1.00
48575;DHT22;34352;51.084;3.712;2022-08-01T15:00:08;32.70;1.00
48575;DHT22;34352;51.084;3.712;2022-08-01T15:02:40;32.50;1.00
48575;DHT22;34352;51.084;3.712;2022-08-01T15:05:06;31.30;1.00
48575;DHT22;34352;51.084;3.712;2022-08-01T15:07:32;30.50;1.00
48575;DHT22;34352;51.084;3.712;2022-08-01T15:09:58;30.20;1.00
48575;DHT22;34352;51.084;3.712;2022-08-01T15:12:24;29.40;1.00
48575;DHT22;34352;51.084;3.712;2022-08-01T15:14:49;29.60;1.00
48575;DHT22;34352;51.084;3.712;2022-08-01T15:17:26;30.10;1.00
48575;DHT22;34352;51.084;3.712;2022-08-01T15:20:00;30.50;1.00
48575;DHT22;34352;51.084;3.712;2022-08-01T15:22:27;30.70;1.00
48575;DHT22;34352;51.084;3.712;2022-08-01T15:24:54;30.70;1.00
48575;DHT22;34352;51.084;3.712;2022-08-01T15:27:20;30.60;1.00
48575;DHT22;34352;51.084;3.712;2022-08-01T15:29:48;30.20;1.00
48575;DHT22;34352;51.084;3.712;2022-08-01T15:32:14;29.90;1.00
48575;DHT22;34352;51.084;3.712;2022-08-01T15:34:40;30.00;1.00
48575;DHT22;34352;51.084;3.712;2022-08-01T15:37:06;29.80;1.00
48575;DHT22;34352;51.084;3.712;2022-08-01T15:39:33;29.60;1.00
48575;DHT22;34352;51.084;3.712;2022-08-01T15:42:00;29.60;1.00
48575;DHT22;34352;51.084;3.712;2022-08-01T15:44:27;29.70;1.00
48575;DHT22;34352;51.084;3.712;2022-08-01T15:46:53;29.70;1.00
48575;DHT22;34352;51.084;3.712;2022-08-01T15:49:18;29.80;1.00
48575;DHT22;34352;51.084;3.712;2022-08-01T15:51:48;29.90;1.00
48575;DHT22;34352;51.084;3.712;2022-08-01T15:54:14;29.90;1.00
48575;DHT22;34352;51.084;3.712;2022-08-01T15:56:39;29.70;1.00
48575;DHT22;34352;51.084;3.712;2022-08-01T15:59:05;29.60;1.00
48575;DHT22;34352;51.084;3.712;2022-08-01T16:01:31;29.50;1.00
48575;DHT22;34352;51.084;3.712;2022-08-01T16:03:57;29.50;1.00
48575;DHT22;34352;51.084;3.712;2022-08-01T16:06:23;29.50;1.00
48575;DHT22;34352;51.084;3.712;2022-08-01T16:08:49;29.60;1.00
48575;DHT22;34352;51.084;3.712;2022-08-01T16:11:15;29.60;1.00
48575;DHT22;34352;51.084;3.712;2022-08-01T16:13:41;29.50;1.00
48575;DHT22;34352;51.084;3.712;2022-08-01T16:16:08;29.00;1.00
48575;DHT22;34352;51.084;3.712;2022-08-01T16:18:34;29.10;1.00